Time;durP1;ratioP1;P1;durP2;ratioP2;P2;SDS_P1;SDS_P2;PMS_P1;PMS_P2;Temp;Humidity;BMP_temperature;BMP_pressure;BME280_temperature;BME280_humidity;BME280_pressure;Samples;Min_cycle;Max_cycle;Signal;HPM_P1;HPM_P2
2021/12/27 00:00:18;;;;;;;12.80;8.40;;;2.00;99.90;;;;;;6191412;23;20383;-87
2021/12/27 00:02:51;;;;;;;14.57;9.38;;;2.10;99.90;;;;;;6217538;23;20008;-88
2021/12/27 00:05:19;;;;;;;11.93;7.88;;;2.00;99.90;;;;;;6222636;23;20099;-88
2021/12/27 00:07:54;;;;;;;15.82;9.75;;;2.00;99.90;;;;;;6244327;23;20421;-88
2021/12/27 00:10:25;;;;;;;15.50;9.85;;;2.00;99.90;;;;;;6215802;23;20035;-88
2021/12/27 00:13:00;;;;;;;14.70;9.93;;;2.00;99.90;;;;;;6216663;23;20004;-88
2021/12/27 00:15:43;;;;;;;15.90;10.00;;;2.00;99.90;;;;;;6244264;23;20314;-87
2021/12/27 00:18:13;;;;;;;16.27;10.02;;;2.00;99.90;;;;;;6193574;23;20432;-88
2021/12/27 00:20:45;;;;;;;15.98;10.40;;;2.00;99.90;;;;;;6215550;23;20445;-88
2021/12/27 00:23:17;;;;;;;14.82;9.38;;;2.00;99.90;;;;;;6242428;23;20081;-88
2021/12/27 00:25:45;;;;;;;14.30;9.30;;;2.00;99.90;;;;;;6245610;23;20018;-88
2021/12/27 00:28:15;;;;;;;15.90;9.90;;;2.10;99.90;;;;;;6218714;23;20017;-88
2021/12/27 00:30:46;;;;;;;13.88;9.63;;;2.10;99.90;;;;;;6216308;23;20090;-89
2021/12/27 00:33:17;;;;;;;15.10;10.20;;;2.10;99.90;;;;;;6216248;23;20448;-89
2021/12/27 00:35:47;;;;;;;14.35;9.82;;;2.10;99.90;;;;;;6192592;23;20008;-89
2021/12/27 00:38:20;;;;;;;14.35;9.70;;;2.10;99.90;;;;;;6239123;23;20325;-88
2021/12/27 00:40:46;;;;;;;13.43;8.80;;;2.10;99.90;;;;;;6216002;23;20032;-88
2021/12/27 00:43:16;;;;;;;15.43;8.52;;;2.10;99.90;;;;;;6242476;23;20348;-88
2021/12/27 00:45:43;;;;;;;14.00;8.85;;;2.20;99.90;;;;;;6191864;23;20008;-87
2021/12/27 00:48:09;;;;;;;14.27;9.07;;;2.20;99.90;;;;;;6191188;23;20004;-90
2021/12/27 00:50:38;;;;;;;13.32;8.55;;;2.20;99.90;;;;;;6191096;23;20012;-88
2021/12/27 00:53:04;;;;;;;12.85;8.80;;;2.20;99.90;;;;;;6216436;23;20023;-88
2021/12/27 00:55:36;;;;;;;15.07;9.68;;;2.20;99.90;;;;;;6216541;23;20090;-89
2021/12/27 00:58:04;;;;;;;16.55;9.65;;;2.20;99.90;;;;;;6193199;23;20051;-89
2021/12/27 01:00:32;;;;;;;13.75;8.57;;;2.20;99.90;;;;;;6241002;22;20016;-89
2021/12/27 01:03:06;;;;;;;13.10;9.43;;;2.20;99.90;;;;;;6244108;22;20004;-88
2021/12/27 01:05:35;;;;;;;14.32;8.38;;;2.20;99.90;;;;;;6243411;23;20012;-88
2021/12/27 01:08:11;;;;;;;13.02;8.68;;;2.30;99.90;;;;;;6266387;22;20008;-88
2021/12/27 01:10:59;;;;;;;13.57;8.85;;;2.30;99.90;;;;;;6215933;23;20016;-88
2021/12/27 01:18:40;;;;;;;13.15;9.18;;;2.30;99.90;;;;;;6218056;23;20197;-87
2021/12/27 01:21:13;;;;;;;13.48;9.00;;;2.30;99.90;;;;;;6190595;23;20019;-88
2021/12/27 01:23:40;;;;;;;14.93;9.77;;;2.30;99.90;;;;;;6215863;23;20016;-87
2021/12/27 01:26:20;;;;;;;14.88;9.98;;;2.30;99.90;;;;;;6242161;23;20027;-88
2021/12/27 01:28:46;;;;;;;14.05;8.70;;;2.30;99.90;;;;;;6170869;23;20039;-87
2021/12/27 01:31:22;;;;;;;13.95;9.15;;;2.30;99.90;;;;;;6242868;23;20000;-87
2021/12/27 01:33:51;;;;;;;14.63;9.15;;;2.30;99.90;;;;;;6215601;23;20012;-87
2021/12/27 01:36:21;;;;;;;12.82;8.95;;;2.30;99.90;;;;;;6191740;23;20015;-88
2021/12/27 01:38:55;;;;;;;16.05;10.13;;;2.30;99.90;;;;;;6215309;23;20021;-87
2021/12/27 01:41:25;;;;;;;14.13;8.73;;;2.30;99.90;;;;;;6241479;23;20000;-87
2021/12/27 01:43:53;;;;;;;14.20;9.50;;;2.30;99.90;;;;;;6189655;23;20032;-86
2021/12/27 01:46:26;;;;;;;13.88;9.35;;;2.30;99.90;;;;;;6215551;23;20019;-87
2021/12/27 01:48:59;;;;;;;13.60;9.13;;;2.30;99.90;;;;;;6215465;23;20004;-87
2021/12/27 01:51:31;;;;;;;15.10;9.77;;;2.30;99.90;;;;;;6241490;23;20004;-88
2021/12/27 01:54:00;;;;;;;13.38;8.55;;;2.30;99.90;;;;;;6216589;23;20463;-87
2021/12/27 01:56:29;;;;;;;14.43;8.90;;;2.30;99.90;;;;;;6191592;23;20012;-87
2021/12/27 01:59:02;;;;;;;14.02;9.70;;;2.30;99.90;;;;;;6218913;23;20026;-88
2021/12/27 02:01:28;;;;;;;14.88;10.05;;;2.30;99.90;;;;;;6195684;23;20016;-88
2021/12/27 02:03:57;;;;;;;14.68;9.15;;;2.30;99.90;;;;;;6247877;23;20004;-89
2021/12/27 02:06:29;;;;;;;13.52;8.50;;;2.30;99.90;;;;;;6220113;23;20004;-89
2021/12/27 02:08:57;;;;;;;13.50;9.35;;;2.40;99.90;;;;;;6220858;23;20019;-90
2021/12/27 02:11:26;;;;;;;13.82;8.85;;;2.40;99.90;;;;;;6221497;23;20015;-90
2021/12/27 02:14:07;;;;;;;14.65;8.43;;;2.40;99.90;;;;;;6247520;23;20046;-89
2021/12/27 02:16:47;;;;;;;12.70;8.57;;;2.40;99.90;;;;;;6219593;23;20012;-89
2021/12/27 02:19:21;;;;;;;14.50;9.45;;;2.40;99.90;;;;;;6195320;23;20298;-89
2021/12/27 02:21:46;;;;;;;;;;;2.40;99.90;;;;;;6247873;23;20036;-88
2021/12/27 02:24:18;;;;;;;13.95;9.43;;;2.40;99.90;;;;;;6220101;23;19903;-88
2021/12/27 02:29:36;;;;;;;13.70;8.80;;;2.40;99.90;;;;;;6244077;23;20015;-88
2021/12/27 02:32:03;;;;;;;14.88;9.43;;;2.40;99.90;;;;;;6261394;23;20035;-89
2021/12/27 02:34:39;;;;;;;17.15;11.75;;;2.40;99.90;;;;;;6221397;23;20016;-88
2021/12/27 02:37:05;;;;;;;15.27;9.98;;;2.40;99.90;;;;;;6196617;23;20004;-88
2021/12/27 02:39:36;;;;;;;15.27;9.88;;;2.40;99.90;;;;;;6220185;23;20143;-88
2021/12/27 02:42:05;;;;;;;16.92;10.95;;;2.40;99.90;;;;;;6220570;23;20019;-88
2021/12/27 02:44:34;;;;;;;12.27;8.68;;;2.50;99.90;;;;;;6195716;23;20019;-89
2021/12/27 02:47:04;;;;;;;14.18;9.80;;;2.50;99.90;;;;;;6198057;23;20421;-89
2021/12/27 02:49:34;;;;;;;14.55;9.90;;;2.50;99.90;;;;;;6224497;23;20000;-89
2021/12/27 02:52:00;;;;;;;14.25;9.73;;;2.50;99.90;;;;;;6247961;22;19992;-89
2021/12/27 02:54:31;;;;;;;13.20;8.63;;;2.50;99.90;;;;;;6248355;23;20051;-88
2021/12/27 02:56:58;;;;;;;15.80;10.07;;;2.50;99.90;;;;;;6261307;23;20014;-88
2021/12/27 02:59:28;;;;;;;12.15;8.07;;;2.60;99.90;;;;;;6248973;23;20027;-89
2021/12/27 03:01:57;;;;;;;12.57;7.82;;;2.50;99.90;;;;;;6221415;23;20032;-89
2021/12/27 03:04:26;;;;;;;14.20;9.30;;;2.60;99.90;;;;;;6225000;23;20035;-89
2021/12/27 03:06:56;;;;;;;12.35;8.20;;;2.60;99.90;;;;;;6226669;23;20054;-90
2021/12/27 03:09:27;;;;;;;14.10;8.80;;;2.60;99.90;;;;;;6251960;23;20011;-89
2021/12/27 03:11:53;;;;;;;12.38;8.02;;;2.60;99.90;;;;;;6223552;23;20027;-89
2021/12/27 03:14:20;;;;;;;11.38;7.82;;;2.60;99.90;;;;;;6197548;23;20004;-89
2021/12/27 03:16:46;;;;;;;13.98;8.73;;;2.60;99.90;;;;;;6222967;23;20332;-90
2021/12/27 03:19:16;;;;;;;12.20;7.95;;;2.60;99.90;;;;;;6223199;23;20008;-88
2021/12/27 03:21:50;;;;;;;12.48;7.95;;;2.60;99.90;;;;;;6176317;23;20008;-89
2021/12/27 03:24:25;;;;;;;12.80;8.38;;;2.70;99.90;;;;;;6227702;23;20486;-89
2021/12/27 03:26:51;;;;;;;12.13;8.27;;;2.70;99.90;;;;;;6249092;23;20004;-89
2021/12/27 03:29:20;;;;;;;11.45;7.47;;;2.70;99.90;;;;;;6222763;23;20320;-88
2021/12/27 03:31:47;;;;;;;12.50;8.27;;;2.70;99.90;;;;;;6198109;23;20046;-88
2021/12/27 03:34:13;;;;;;;12.63;8.68;;;2.70;99.90;;;;;;6221677;23;20020;-90
2021/12/27 03:36:48;;;;;;;13.10;8.73;;;2.70;99.90;;;;;;6249771;23;19996;-88
2021/12/27 03:39:22;;;;;;;12.45;8.00;;;2.70;99.90;;;;;;6223284;23;20008;-87
2021/12/27 03:41:51;;;;;;;11.40;7.60;;;2.70;99.90;;;;;;6249059;23;20004;-89
2021/12/27 03:44:21;;;;;;;12.95;8.30;;;2.70;99.90;;;;;;6223168;23;20023;-88
2021/12/27 03:46:51;;;;;;;12.38;8.18;;;2.70;99.90;;;;;;6222979;23;20035;-90
2021/12/27 03:49:37;;;;;;;11.77;7.60;;;2.70;99.90;;;;;;6249137;23;20008;-89
2021/12/27 03:52:19;;;;;;;13.55;8.68;;;2.80;99.90;;;;;;6200833;23;20012;-88
2021/12/27 03:54:45;;;;;;;13.25;8.40;;;2.80;99.90;;;;;;6224161;23;20028;-89
2021/12/27 03:57:16;;;;;;;12.98;8.55;;;2.80;99.90;;;;;;6222462;23;20066;-89
2021/12/27 04:02:13;;;;;;;12.50;7.75;;;2.80;99.90;;;;;;6259536;23;20036;-88
2021/12/27 04:04:44;;;;;;;12.20;7.95;;;2.80;99.90;;;;;;6248974;23;20440;-88
2021/12/27 04:07:18;;;;;;;11.98;8.35;;;2.80;99.90;;;;;;6222545;23;20040;-88
2021/12/27 04:09:45;;;;;;;14.18;8.15;;;2.80;99.90;;;;;;6173439;23;20382;-89
2021/12/27 04:12:11;;;;;;;11.15;7.50;;;2.80;99.90;;;;;;6222281;23;20384;-88
2021/12/27 04:14:39;;;;;;;13.90;8.32;;;2.80;99.90;;;;;;6222143;23;20000;-88
2021/12/27 04:17:05;;;;;;;13.23;7.95;;;2.80;99.90;;;;;;6221449;23;20004;-88
2021/12/27 04:19:32;;;;;;;13.73;8.25;;;2.80;99.90;;;;;;6221787;23;20332;-88
2021/12/27 04:22:02;;;;;;;13.77;8.68;;;2.80;99.90;;;;;;6223996;23;20008;-88
2021/12/27 04:24:40;;;;;;;13.43;9.07;;;2.80;99.90;;;;;;6221994;23;20004;-88
2021/12/27 04:27:06;;;;;;;11.82;7.57;;;2.80;99.90;;;;;;6247882;23;20000;-88
2021/12/27 04:29:33;;;;;;;13.43;8.82;;;2.80;99.90;;;;;;6249004;23;20008;-88
2021/12/27 04:31:58;;;;;;;13.02;8.35;;;2.90;99.90;;;;;;6222141;23;20083;-88
2021/12/27 04:34:24;;;;;;;12.32;8.57;;;2.90;99.90;;;;;;6221432;23;20491;-88
2021/12/27 04:36:51;;;;;;;12.85;8.68;;;2.90;99.90;;;;;;6221738;23;20008;-87
2021/12/27 04:39:18;;;;;;;13.57;8.70;;;2.90;99.90;;;;;;6221329;23;20012;-88
2021/12/27 04:41:49;;;;;;;13.32;8.52;;;2.90;99.90;;;;;;6248118;23;20004;-88
2021/12/27 04:44:16;;;;;;;14.90;8.07;;;2.90;99.90;;;;;;6212533;23;19989;-88
2021/12/27 04:46:45;;;;;;;13.70;8.57;;;3.00;99.90;;;;;;6249029;23;20008;-88
2021/12/27 04:49:11;;;;;;;15.07;8.90;;;3.00;99.90;;;;;;6248927;23;20067;-87
2021/12/27 04:51:37;;;;;;;14.55;8.73;;;3.00;99.90;;;;;;6242607;23;20027;-88
2021/12/27 04:54:06;;;;;;;13.70;8.38;;;3.00;99.90;;;;;;6226967;23;20003;-88
2021/12/27 04:56:33;;;;;;;14.38;8.70;;;3.00;99.90;;;;;;6251311;23;20004;-88
2021/12/27 04:59:02;;;;;;;12.77;8.43;;;3.00;99.90;;;;;;6197128;23;20075;-88
2021/12/27 05:01:28;;;;;;;13.32;8.63;;;3.00;99.90;;;;;;6221442;23;20376;-89
2021/12/27 05:03:54;;;;;;;15.95;9.10;;;3.00;99.90;;;;;;6221997;23;20012;-89
2021/12/27 05:06:20;;;;;;;13.05;8.20;;;3.10;99.90;;;;;;6220709;23;20325;-88
2021/12/27 05:08:48;;;;;;;14.18;9.52;;;3.10;99.90;;;;;;6220774;23;20005;-88
2021/12/27 05:11:14;;;;;;;15.70;10.02;;;3.10;99.90;;;;;;6221411;23;20079;-89
2021/12/27 05:13:41;;;;;;;15.75;8.85;;;3.10;99.90;;;;;;6221658;23;20004;-88
2021/12/27 05:16:07;;;;;;;16.65;8.60;;;3.10;99.90;;;;;;6221100;23;20000;-88
2021/12/27 05:18:33;;;;;;;17.13;9.48;;;3.10;99.90;;;;;;6221225;23;20004;-88
2021/12/27 05:20:59;;;;;;;12.77;8.95;;;3.10;99.90;;;;;;6221180;23;20447;-88
2021/12/27 05:23:25;;;;;;;15.05;9.05;;;3.10;99.90;;;;;;6195873;23;20407;-89
2021/12/27 05:25:55;;;;;;;14.35;9.30;;;3.20;99.90;;;;;;6195758;23;20064;-89
2021/12/27 05:28:21;;;;;;;14.32;8.73;;;3.20;99.90;;;;;;6247736;23;20004;-89
2021/12/27 05:30:51;;;;;;;14.02;8.85;;;3.20;99.90;;;;;;6221260;23;20008;-88
2021/12/27 05:33:20;;;;;;;14.75;8.90;;;3.20;99.90;;;;;;6247389;23;20003;-89
2021/12/27 05:35:46;;;;;;;13.93;9.02;;;3.20;99.90;;;;;;6247599;23;20329;-88
2021/12/27 05:38:13;;;;;;;13.55;9.02;;;3.30;99.90;;;;;;6196405;23;20010;-88
2021/12/27 05:40:40;;;;;;;13.93;9.45;;;3.20;99.90;;;;;;6219516;23;20384;-88
2021/12/27 05:43:09;;;;;;;14.00;8.50;;;3.20;99.90;;;;;;6247617;23;20043;-89
2021/12/27 05:45:37;;;;;;;15.27;8.73;;;3.20;99.90;;;;;;6247165;23;20417;-88
2021/12/27 05:48:05;;;;;;;14.88;9.52;;;3.20;99.90;;;;;;6221230;23;20008;-90
2021/12/27 05:50:30;;;;;;;13.10;8.68;;;3.30;99.90;;;;;;6221042;23;20008;-88
2021/12/27 05:53:01;;;;;;;15.35;9.60;;;3.30;99.90;;;;;;6195982;23;20059;-88
2021/12/27 05:55:33;;;;;;;15.80;9.10;;;3.30;99.90;;;;;;6221044;23;20084;-88
2021/12/27 05:57:59;;;;;;;15.52;9.52;;;3.30;99.90;;;;;;6219908;23;20004;-88
2021/12/27 06:00:26;;;;;;;15.98;9.73;;;3.30;99.90;;;;;;6193622;23;20019;-88
2021/12/27 06:02:54;;;;;;;14.23;9.40;;;3.30;99.90;;;;;;6196743;23;20045;-88
2021/12/27 06:05:21;;;;;;;15.68;9.35;;;3.30;99.90;;;;;;6248494;23;20140;-88
2021/12/27 06:07:47;;;;;;;14.25;9.45;;;3.30;99.90;;;;;;6218622;23;20004;-88
2021/12/27 06:10:14;;;;;;;13.98;9.23;;;3.30;99.90;;;;;;6245268;23;20022;-88
2021/12/27 06:12:41;;;;;;;13.82;9.50;;;3.30;99.90;;;;;;6218849;23;20020;-89
2021/12/27 06:15:09;;;;;;;15.20;9.75;;;3.40;99.90;;;;;;6218247;23;20067;-88
2021/12/27 06:17:37;;;;;;;14.38;9.20;;;3.40;99.90;;;;;;6220565;23;20004;-88
2021/12/27 06:20:12;;;;;;;17.10;10.88;;;3.40;99.90;;;;;;6197785;23;20008;-88
2021/12/27 06:22:42;;;;;;;17.73;10.32;;;3.50;99.90;;;;;;6221455;23;20006;-89
2021/12/27 06:25:08;;;;;;;14.95;10.38;;;3.50;99.90;;;;;;6222840;23;20058;-88
2021/12/27 06:27:34;;;;;;;15.30;9.98;;;3.50;99.90;;;;;;6247677;23;20027;-88
2021/12/27 06:30:01;;;;;;;14.48;9.43;;;3.50;99.90;;;;;;6222673;23;20000;-88
2021/12/27 06:32:28;;;;;;;14.38;8.98;;;3.50;99.90;;;;;;6223513;23;19996;-88
2021/12/27 06:34:54;;;;;;;15.48;9.60;;;3.60;99.90;;;;;;6173578;23;20368;-88
2021/12/27 06:37:20;;;;;;;14.45;8.98;;;3.60;99.90;;;;;;6171899;23;20010;-89
2021/12/27 06:39:46;;;;;;;14.73;9.80;;;3.60;99.90;;;;;;6237432;23;20000;-87
2021/12/27 06:42:11;;;;;;;14.95;9.57;;;3.60;99.90;;;;;;6248761;22;20043;-88
2021/12/27 06:44:40;;;;;;;13.88;9.45;;;3.60;99.90;;;;;;6249764;23;19992;-88
2021/12/27 06:47:06;;;;;;;13.80;9.25;;;3.60;99.90;;;;;;6241892;23;20008;-87
2021/12/27 06:49:33;;;;;;;15.57;9.68;;;3.60;99.90;;;;;;6224658;23;21063;-89
2021/12/27 06:52:01;;;;;;;18.52;12.25;;;3.60;99.90;;;;;;6217921;23;20097;-90
2021/12/27 06:54:29;;;;;;;16.48;9.93;;;3.70;99.90;;;;;;6209266;23;20004;-91
2021/12/27 06:57:00;;;;;;;14.93;9.68;;;3.70;99.90;;;;;;6163006;23;20037;-90
2021/12/27 06:59:29;;;;;;;;;;;3.70;99.90;;;;;;6188973;23;20016;-90
2021/12/27 07:01:56;;;;;;;11.32;8.15;;;3.70;99.90;;;;;;6162038;23;19958;-90
2021/12/27 07:04:23;;;;;;;14.07;8.90;;;3.70;99.90;;;;;;6162635;23;20043;-89
2021/12/27 07:06:50;;;;;;;12.23;8.63;;;3.70;99.90;;;;;;6138058;23;20009;-90
2021/12/27 07:09:17;;;;;;;13.15;9.48;;;3.70;99.90;;;;;;6138237;23;20009;-89
2021/12/27 07:11:43;;;;;;;13.20;8.70;;;3.70;99.90;;;;;;6161918;23;20044;-91
2021/12/27 07:14:11;;;;;;;16.80;8.93;;;3.80;99.90;;;;;;6188460;23;20004;-90
2021/12/27 07:16:37;;;;;;;14.32;9.45;;;3.80;99.90;;;;;;6162168;23;20437;-90
2021/12/27 07:19:03;;;;;;;12.48;8.57;;;3.80;99.90;;;;;;6188706;23;20004;-90
2021/12/27 07:21:29;;;;;;;13.15;8.98;;;3.80;99.90;;;;;;6187228;23;20021;-89
2021/12/27 07:23:55;;;;;;;14.02;9.07;;;3.80;99.90;;;;;;6136384;23;20044;-89
2021/12/27 07:26:20;;;;;;;14.82;8.90;;;3.80;99.90;;;;;;6186671;23;20001;-89
2021/12/27 07:28:46;;;;;;;13.73;9.10;;;3.80;99.90;;;;;;6161661;23;20001;-89
2021/12/27 07:31:12;;;;;;;14.38;8.95;;;3.80;99.90;;;;;;6161809;23;20001;-88
2021/12/27 07:33:38;;;;;;;13.65;8.93;;;3.80;99.90;;;;;;6135963;23;20024;-88
2021/12/27 07:36:10;;;;;;;14.43;9.77;;;3.80;99.90;;;;;;6161326;23;20005;-88
2021/12/27 07:38:39;;;;;;;13.88;9.25;;;3.80;99.90;;;;;;6159179;23;20001;-88
2021/12/27 07:41:05;;;;;;;13.63;9.40;;;3.80;99.90;;;;;;6189882;23;20009;-88
2021/12/27 07:43:31;;;;;;;15.50;10.40;;;3.90;99.90;;;;;;6183470;23;20424;-88
2021/12/27 07:45:57;;;;;;;13.82;9.07;;;3.80;99.90;;;;;;6184993;23;20080;-88
2021/12/27 07:48:23;;;;;;;14.07;8.75;;;3.90;99.90;;;;;;6159120;23;20009;-88
2021/12/27 07:50:48;;;;;;;16.13;9.57;;;3.90;99.90;;;;;;6158509;23;20095;-86
2021/12/27 07:53:14;;;;;;;12.45;8.70;;;3.90;99.90;;;;;;6158470;23;20009;-87
2021/12/27 07:55:40;;;;;;;15.50;10.02;;;3.90;99.90;;;;;;6177269;23;20084;-87
2021/12/27 07:58:08;;;;;;;14.35;9.43;;;4.00;99.90;;;;;;6133736;23;20037;-87
2021/12/27 08:00:34;;;;;;;15.02;9.75;;;4.00;99.90;;;;;;6134523;23;20013;-87
2021/12/27 08:03:01;;;;;;;13.13;9.27;;;4.00;99.90;;;;;;6159471;23;20096;-87
2021/12/27 08:05:27;;;;;;;15.65;9.43;;;4.00;99.90;;;;;;6135302;23;20414;-88
2021/12/27 08:07:55;;;;;;;15.18;9.82;;;4.00;99.90;;;;;;6187137;23;20421;-88
2021/12/27 08:10:21;;;;;;;13.68;9.40;;;4.00;99.90;;;;;;6158705;23;20060;-88
2021/12/27 08:12:49;;;;;;;16.65;10.55;;;4.10;99.90;;;;;;6185497;23;20004;-87
2021/12/27 08:15:15;;;;;;;13.73;9.55;;;4.10;99.90;;;;;;6134909;23;20013;-86
2021/12/27 08:17:42;;;;;;;17.63;10.80;;;4.10;99.90;;;;;;6160026;23;20008;-86
2021/12/27 08:20:08;;;;;;;14.85;9.95;;;4.10;99.90;;;;;;6175497;23;20012;-88
2021/12/27 08:22:35;;;;;;;15.40;9.82;;;4.10;99.90;;;;;;6161779;23;20009;-87
2021/12/27 08:25:01;;;;;;;16.02;10.98;;;4.20;99.90;;;;;;6212090;22;20041;-86
2021/12/27 08:27:29;;;;;;;14.48;9.95;;;4.20;99.90;;;;;;6200169;22;20006;-86
2021/12/27 08:29:55;;;;;;;14.55;10.00;;;4.20;99.90;;;;;;6160352;23;20008;-87
2021/12/27 08:32:21;;;;;;;14.38;10.02;;;4.20;99.90;;;;;;6133417;23;20024;-87
2021/12/27 08:34:47;;;;;;;15.77;10.23;;;4.20;99.90;;;;;;6158080;23;20021;-87
2021/12/27 08:37:13;;;;;;;15.18;10.10;;;4.20;99.90;;;;;;6185027;23;20007;-88
2021/12/27 08:39:40;;;;;;;14.43;9.35;;;4.20;99.90;;;;;;6158878;23;20009;-86
2021/12/27 08:42:10;;;;;;;14.98;10.52;;;4.20;99.90;;;;;;6184471;23;20031;-86
2021/12/27 08:44:36;;;;;;;15.02;9.73;;;4.20;99.90;;;;;;6134111;23;20019;-86
2021/12/27 08:47:03;;;;;;;15.20;10.43;;;4.20;99.90;;;;;;6159078;23;20005;-87
2021/12/27 08:49:30;;;;;;;14.82;10.27;;;4.20;99.90;;;;;;6184998;23;20063;-88
2021/12/27 08:51:56;;;;;;;14.50;9.98;;;4.30;99.90;;;;;;6186408;23;20414;-87
2021/12/27 08:54:22;;;;;;;15.30;10.13;;;4.20;99.90;;;;;;6183969;23;20055;-87
2021/12/27 08:56:48;;;;;;;19.65;13.00;;;4.30;99.90;;;;;;6158796;23;20012;-88
2021/12/27 08:59:14;;;;;;;16.98;11.88;;;4.30;99.90;;;;;;6134165;23;20080;-88
2021/12/27 09:01:39;;;;;;;16.70;11.23;;;4.30;99.90;;;;;;6154586;23;20382;-87
2021/12/27 09:04:07;;;;;;;15.88;11.10;;;4.30;99.90;;;;;;6157707;23;20009;-87
2021/12/27 09:06:36;;;;;;;16.85;11.77;;;4.30;99.90;;;;;;6159506;23;20001;-87
2021/12/27 09:09:03;;;;;;;16.33;11.20;;;4.40;99.90;;;;;;6161726;23;20020;-88
2021/12/27 09:11:34;;;;;;;13.85;9.98;;;4.30;99.90;;;;;;6158129;23;20080;-87
2021/12/27 09:14:01;;;;;;;14.32;10.05;;;4.40;99.90;;;;;;6157781;23;20412;-87
2021/12/27 09:16:27;;;;;;;14.90;10.50;;;4.40;99.90;;;;;;6136098;23;20425;-87
2021/12/27 09:18:53;;;;;;;14.00;9.60;;;4.40;99.90;;;;;;6169584;23;20017;-87
2021/12/27 09:21:18;;;;;;;17.35;11.10;;;4.40;99.90;;;;;;6166393;23;20013;-89
2021/12/27 09:23:44;;;;;;;16.55;11.80;;;4.40;99.90;;;;;;6137084;23;20016;-87
2021/12/27 09:26:10;;;;;;;14.65;9.77;;;4.50;99.90;;;;;;6161736;23;20365;-87
2021/12/27 09:28:36;;;;;;;14.57;10.00;;;4.50;99.90;;;;;;6186976;23;19997;-88
2021/12/27 09:31:02;;;;;;;15.73;10.23;;;4.50;99.90;;;;;;6161505;23;20015;-87
2021/12/27 09:33:41;;;;;;;14.30;9.38;;;4.60;99.90;;;;;;6160510;23;20065;-88
2021/12/27 09:36:07;;;;;;;14.60;9.07;;;4.60;99.90;;;;;;6187258;23;20051;-88
2021/12/27 09:38:34;;;;;;;15.02;10.02;;;4.60;99.90;;;;;;6186806;23;20013;-88
2021/12/27 09:41:01;;;;;;;14.82;9.77;;;4.60;99.90;;;;;;6161201;23;20005;-88
2021/12/27 09:43:27;;;;;;;14.18;9.95;;;4.70;99.90;;;;;;6187310;23;20074;-89
2021/12/27 09:45:54;;;;;;;13.90;9.50;;;4.70;99.90;;;;;;6160447;23;20557;-89
2021/12/27 09:48:28;;;;;;;17.65;10.27;;;4.70;99.90;;;;;;6184056;23;20009;-88
2021/12/27 09:50:57;;;;;;;15.73;10.43;;;4.80;99.90;;;;;;6158640;23;20541;-89
2021/12/27 09:53:24;;;;;;;15.05;9.82;;;4.90;99.90;;;;;;6161193;23;20393;-89
2021/12/27 09:55:52;;;;;;;13.73;9.60;;;5.10;99.90;;;;;;6134062;23;20005;-90
2021/12/27 09:58:19;;;;;;;16.08;10.70;;;5.40;99.90;;;;;;6185787;23;20005;-89
2021/12/27 10:00:47;;;;;;;15.27;10.75;;;5.80;99.90;;;;;;6134884;23;20369;-89
2021/12/27 10:03:13;;;;;;;14.77;10.35;;;6.40;99.90;;;;;;6136519;23;20446;-89
2021/12/27 10:05:39;;;;;;;14.63;10.40;;;6.90;99.90;;;;;;6179083;23;19985;-88
2021/12/27 10:08:05;;;;;;;13.73;9.80;;;7.20;99.90;;;;;;6187842;22;20016;-89
2021/12/27 10:10:34;;;;;;;14.73;10.68;;;7.50;99.90;;;;;;6187619;23;20020;-89
2021/12/27 10:13:01;;;;;;;14.45;10.90;;;8.00;99.90;;;;;;6195563;23;20067;-87
2021/12/27 10:15:38;;;;;;;13.10;9.77;;;8.20;99.90;;;;;;6187248;23;19997;-89
2021/12/27 10:18:12;;;;;;;14.85;11.07;;;7.90;99.90;;;;;;6161730;23;20001;-90
2021/12/27 10:20:39;;;;;;;13.95;10.27;;;7.70;99.90;;;;;;6162335;23;20020;-89
2021/12/27 10:23:06;;;;;;;14.75;10.80;;;7.30;99.90;;;;;;6186766;23;20012;-89
2021/12/27 10:25:32;;;;;;;11.80;9.43;;;7.00;99.90;;;;;;6159516;23;20009;-90
2021/12/27 10:28:03;;;;;;;15.82;10.57;;;6.80;99.90;;;;;;6160567;23;20020;-90
2021/12/27 10:30:40;;;;;;;14.15;10.27;;;6.70;99.90;;;;;;6112270;23;20013;-90
2021/12/27 10:33:24;;;;;;;14.38;10.63;;;6.70;99.90;;;;;;6114077;23;20052;-91
2021/12/27 10:35:58;;;;;;;14.38;10.48;;;6.70;99.90;;;;;;6160749;23;20015;-89
2021/12/27 10:38:36;;;;;;;14.48;10.48;;;6.70;99.90;;;;;;6161686;23;20438;-86
2021/12/27 10:41:09;;;;;;;13.85;9.75;;;6.70;99.90;;;;;;6180052;23;20008;-88
2021/12/27 10:43:45;;;;;;;16.13;11.27;;;6.60;99.90;;;;;;6182138;23;20004;-88
2021/12/27 10:46:20;;;;;;;14.05;10.52;;;6.70;99.90;;;;;;6198073;23;20009;-91
2021/12/27 10:48:57;;;;;;;14.15;10.50;;;6.80;99.90;;;;;;6164466;23;20029;-89
2021/12/27 10:51:30;;;;;;;14.48;10.88;;;6.80;99.90;;;;;;6189614;23;20008;-90
2021/12/27 10:54:10;;;;;;;15.95;10.98;;;6.70;99.90;;;;;;6164439;23;20063;-91
2021/12/27 10:57:03;;;;;;;14.52;10.32;;;6.70;99.90;;;;;;6144243;23;20097;-89
2021/12/27 10:59:30;;;;;;;;;;;6.70;99.90;;;;;;6190864;23;20001;-88
2021/12/27 11:02:06;;;;;;;13.13;8.60;;;6.80;99.90;;;;;;6170835;23;19948;-88
2021/12/27 11:04:38;;;;;;;12.23;8.95;;;6.90;99.90;;;;;;6194605;23;20076;-90
2021/12/27 11:07:09;;;;;;;14.03;9.97;;;7.20;99.90;;;;;;6139418;23;20016;-89
2021/12/27 11:09:38;;;;;;;13.80;10.65;;;8.00;99.90;;;;;;6161997;23;20321;-89
2021/12/27 11:12:04;;;;;;;13.82;10.68;;;9.00;99.90;;;;;;6162816;23;20426;-89
2021/12/27 11:14:30;;;;;;;13.95;10.25;;;9.70;99.90;;;;;;6161621;23;20013;-91
2021/12/27 11:16:56;;;;;;;12.00;9.50;;;10.30;99.90;;;;;;6162799;23;20069;-91
2021/12/27 11:19:23;;;;;;;11.75;9.57;;;10.70;99.90;;;;;;6165076;23;20013;-90
2021/12/27 11:21:57;;;;;;;12.60;10.85;;;10.40;99.90;;;;;;6190778;23;20001;-90
2021/12/27 11:24:28;;;;;;;;;;;10.00;99.90;;;;;;6140369;23;20381;-90
2021/12/27 11:27:13;;;;;;;12.48;9.68;;;9.70;99.90;;;;;;6192060;23;19911;-90
2021/12/27 11:29:41;;;;;;;13.18;10.23;;;9.40;99.90;;;;;;6141686;23;20016;-91
2021/12/27 11:32:16;;;;;;;16.30;13.00;;;9.00;99.90;;;;;;6164072;23;20013;-89
2021/12/27 11:35:04;;;;;;;18.92;14.10;;;8.60;99.90;;;;;;6164273;23;20017;-90
2021/12/27 11:37:42;;;;;;;19.45;15.15;;;8.30;99.90;;;;;;6141434;23;20009;-90
2021/12/27 11:40:13;;;;;;;18.88;14.57;;;8.20;99.90;;;;;;6193686;23;20067;-89
2021/12/27 11:42:59;;;;;;;17.02;12.70;;;8.10;99.90;;;;;;6163367;23;20378;-90
2021/12/27 11:45:44;;;;;;;15.90;12.02;;;8.00;99.90;;;;;;6190431;23;20373;-90
2021/12/27 11:48:23;;;;;;;15.38;11.60;;;8.00;99.90;;;;;;6196058;23;20064;-90
2021/12/27 11:51:13;;;;;;;14.15;10.95;;;7.90;99.90;;;;;;6169751;23;20036;-89
2021/12/27 11:53:44;;;;;;;13.10;10.50;;;7.90;99.90;;;;;;6185516;23;20020;-89
2021/12/27 11:56:14;;;;;;;15.80;11.13;;;7.80;99.90;;;;;;6214460;22;20012;-90
2021/12/27 11:58:50;;;;;;;14.65;10.18;;;7.80;99.90;;;;;;6182901;23;19998;-90
2021/12/27 12:01:21;;;;;;;15.23;11.75;;;7.70;99.90;;;;;;6170682;23;20005;-90
2021/12/27 12:03:54;;;;;;;15.02;11.57;;;7.80;99.90;;;;;;6165649;23;20009;-89
2021/12/27 12:06:44;;;;;;;17.67;12.05;;;7.70;99.90;;;;;;6118834;23;20098;-90
2021/12/27 12:09:18;;;;;;;14.35;10.73;;;7.70;99.90;;;;;;6152121;23;20063;-90
2021/12/27 12:11:58;;;;;;;14.32;10.40;;;7.80;99.90;;;;;;6163814;23;20342;-89
2021/12/27 12:14:34;;;;;;;14.63;9.63;;;8.00;99.90;;;;;;6162644;23;20434;-90
2021/12/27 12:17:40;;;;;;;13.85;9.95;;;8.10;99.90;;;;;;6164735;23;20001;-89
2021/12/27 12:20:24;;;;;;;13.88;10.02;;;8.10;99.90;;;;;;6148217;23;20012;-91
2021/12/27 12:23:05;;;;;;;16.17;11.85;;;8.10;99.90;;;;;;6163378;23;20326;-88
2021/12/27 12:25:33;;;;;;;15.27;11.88;;;8.00;99.90;;;;;;6162983;23;20020;-90
2021/12/27 12:28:12;;;;;;;15.77;11.95;;;7.90;99.90;;;;;;6165403;23;20005;-90
2021/12/27 12:30:52;;;;;;;16.20;12.30;;;7.80;99.90;;;;;;6139856;23;20013;-90
2021/12/27 12:33:31;;;;;;;14.73;11.13;;;7.70;99.90;;;;;;6157226;23;20063;-89
2021/12/27 12:36:04;;;;;;;13.30;10.30;;;7.70;99.90;;;;;;6164831;23;20009;-89
2021/12/27 12:38:39;;;;;;;16.10;11.13;;;7.70;99.90;;;;;;6163043;23;20484;-90
2021/12/27 12:41:17;;;;;;;13.93;10.18;;;7.60;99.90;;;;;;6163546;23;20007;-90
2021/12/27 12:43:50;;;;;;;14.38;9.52;;;7.70;99.90;;;;;;6194514;23;20452;-90
2021/12/27 12:46:46;;;;;;;12.23;8.93;;;7.70;99.90;;;;;;6189341;23;20001;-90
2021/12/27 12:49:31;;;;;;;11.68;8.48;;;7.70;99.90;;;;;;6163458;23;20012;-88
2021/12/27 12:52:11;;;;;;;14.75;9.95;;;7.80;99.90;;;;;;6165407;23;20326;-89
2021/12/27 12:54:56;;;;;;;15.73;11.32;;;7.90;99.90;;;;;;6187504;23;20005;-90
2021/12/27 12:57:29;;;;;;;16.02;11.43;;;7.80;99.90;;;;;;6163273;23;20016;-91
2021/12/27 13:00:08;;;;;;;15.82;12.38;;;7.80;99.90;;;;;;6191163;23;20012;-90
2021/12/27 13:02:41;;;;;;;17.88;13.35;;;7.80;99.90;;;;;;6164213;23;20009;-90
2021/12/27 13:05:15;;;;;;;17.35;13.57;;;7.70;99.90;;;;;;6166315;23;20307;-90
2021/12/27 13:07:59;;;;;;;18.52;13.25;;;7.70;99.90;;;;;;6164187;23;20443;-89
2021/12/27 13:10:36;;;;;;;16.08;11.52;;;7.60;99.90;;;;;;6162902;23;20496;-88